sensor_id;sensor_type;location;lat;lon;timestamp;pressure;altitude;pressure_sealevel;temperature;humidity
19108;BME280;9686;48.832;9.126;2023-07-20T00:01:12;97985.66;;;23.80;nan
19108;BME280;9686;48.832;9.126;2023-07-20T00:03:37;97988.97;;;23.84;nan
19108;BME280;9686;48.832;9.126;2023-07-20T00:06:03;97985.28;;;23.58;nan
19108;BME280;9686;48.832;9.126;2023-07-20T00:08:29;97993.72;;;23.79;nan
19108;BME280;9686;48.832;9.126;2023-07-20T00:10:55;97991.91;;;23.51;nan
19108;BME280;9686;48.832;9.126;2023-07-20T00:13:20;98001.19;;;23.29;nan
19108;BME280;9686;48.832;9.126;2023-07-20T00:15:46;98002.00;;;23.16;nan
19108;BME280;9686;48.832;9.126;2023-07-20T00:18:11;98000.34;;;23.29;nan
19108;BME280;9686;48.832;9.126;2023-07-20T00:20:37;97998.25;;;23.20;nan
19108;BME280;9686;48.832;9.126;2023-07-20T00:23:03;97999.88;;;23.22;nan
19108;BME280;9686;48.832;9.126;2023-07-20T00:25:28;98000.88;;;23.05;nan
19108;BME280;9686;48.832;9.126;2023-07-20T00:27:53;98000.47;;;22.97;nan
19108;BME280;9686;48.832;9.126;2023-07-20T00:30:19;98005.56;;;22.86;nan
19108;BME280;9686;48.832;9.126;2023-07-20T00:32:44;97992.94;;;22.90;nan
19108;BME280;9686;48.832;9.126;2023-07-20T00:35:10;98001.53;;;22.95;nan
19108;BME280;9686;48.832;9.126;2023-07-20T00:37:39;98000.19;;;22.72;nan
19108;BME280;9686;48.832;9.126;2023-07-20T00:40:05;97999.78;;;22.48;nan
19108;BME280;9686;48.832;9.126;2023-07-20T00:42:32;97999.22;;;22.43;nan
19108;BME280;9686;48.832;9.126;2023-07-20T00:44:58;98012.84;;;22.21;nan
19108;BME280;9686;48.832;9.126;2023-07-20T00:47:23;98002.81;;;22.10;nan
19108;BME280;9686;48.832;9.126;2023-07-20T00:49:50;98013.44;;;22.10;nan
19108;BME280;9686;48.832;9.126;2023-07-20T00:52:16;98043.78;;;22.22;nan
19108;BME280;9686;48.832;9.126;2023-07-20T00:54:41;98008.28;;;22.07;nan
19108;BME280;9686;48.832;9.126;2023-07-20T00:57:07;98005.34;;;21.96;nan
19108;BME280;9686;48.832;9.126;2023-07-20T00:59:36;98018.69;;;21.79;nan
19108;BME280;9686;48.832;9.126;2023-07-20T01:02:02;98027.88;;;21.89;nan
19108;BME280;9686;48.832;9.126;2023-07-20T01:04:28;98017.09;;;21.59;nan
19108;BME280;9686;48.832;9.126;2023-07-20T01:07:10;98058.94;;;21.54;nan
19108;BME280;9686;48.832;9.126;2023-07-20T01:09:48;97983.69;;;21.05;nan
19108;BME280;9686;48.832;9.126;2023-07-20T01:12:32;97645.75;;;18.79;nan
19108;BME280;9686;48.832;9.126;2023-07-20T01:15:00;98014.41;;;21.43;nan
19108;BME280;9686;48.832;9.126;2023-07-20T01:17:25;98003.41;;;21.34;nan
19108;BME280;9686;48.832;9.126;2023-07-20T01:19:50;97996.03;;;22.36;nan
19108;BME280;9686;48.832;9.126;2023-07-20T01:25:25;97997.81;;;22.97;nan
19108;BME280;9686;48.832;9.126;2023-07-20T01:33:43;98002.03;;;22.86;nan
19108;BME280;9686;48.832;9.126;2023-07-20T01:36:10;97994.69;;;22.91;nan
19108;BME280;9686;48.832;9.126;2023-07-20T01:38:36;97992.88;;;22.91;nan
19108;BME280;9686;48.832;9.126;2023-07-20T01:41:03;98000.38;;;22.37;nan
19108;BME280;9686;48.832;9.126;2023-07-20T01:43:28;97999.47;;;22.38;nan
19108;BME280;9686;48.832;9.126;2023-07-20T01:45:54;97998.78;;;22.35;nan
19108;BME280;9686;48.832;9.126;2023-07-20T01:48:19;98001.00;;;22.42;nan
19108;BME280;9686;48.832;9.126;2023-07-20T01:50:45;98001.50;;;22.33;nan
19108;BME280;9686;48.832;9.126;2023-07-20T01:53:10;98009.78;;;22.13;nan
19108;BME280;9686;48.832;9.126;2023-07-20T01:55:36;98006.41;;;22.09;nan
19108;BME280;9686;48.832;9.126;2023-07-20T01:58:01;98009.34;;;21.72;nan
19108;BME280;9686;48.832;9.126;2023-07-20T02:00:28;98006.22;;;21.97;nan
19108;BME280;9686;48.832;9.126;2023-07-20T02:02:53;98007.88;;;21.66;nan
19108;BME280;9686;48.832;9.126;2023-07-20T02:05:19;98014.53;;;21.24;nan
19108;BME280;9686;48.832;9.126;2023-07-20T02:07:44;98004.78;;;21.25;nan
19108;BME280;9686;48.832;9.126;2023-07-20T02:10:09;98013.09;;;21.00;nan
19108;BME280;9686;48.832;9.126;2023-07-20T02:12:35;98004.38;;;21.15;nan
19108;BME280;9686;48.832;9.126;2023-07-20T02:15:01;98008.41;;;21.05;nan
19108;BME280;9686;48.832;9.126;2023-07-20T02:17:27;98004.06;;;21.04;nan
19108;BME280;9686;48.832;9.126;2023-07-20T02:19:52;98012.94;;;20.69;nan
19108;BME280;9686;48.832;9.126;2023-07-20T02:22:18;98010.75;;;20.59;nan
19108;BME280;9686;48.832;9.126;2023-07-20T02:24:43;98013.03;;;20.67;nan
19108;BME280;9686;48.832;9.126;2023-07-20T02:27:09;98013.97;;;20.66;nan
19108;BME280;9686;48.832;9.126;2023-07-20T02:29:34;98011.97;;;20.52;nan
19108;BME280;9686;48.832;9.126;2023-07-20T02:31:59;98020.16;;;20.48;nan
19108;BME280;9686;48.832;9.126;2023-07-20T02:34:24;98013.84;;;20.50;nan
19108;BME280;9686;48.832;9.126;2023-07-20T02:36:50;98014.94;;;20.46;nan
19108;BME280;9686;48.832;9.126;2023-07-20T02:39:15;98010.72;;;20.42;nan
19108;BME280;9686;48.832;9.126;2023-07-20T02:41:41;98012.84;;;20.53;nan
19108;BME280;9686;48.832;9.126;2023-07-20T02:44:06;98015.41;;;20.54;nan
19108;BME280;9686;48.832;9.126;2023-07-20T02:46:32;98013.91;;;20.49;nan
19108;BME280;9686;48.832;9.126;2023-07-20T02:48:57;98020.31;;;20.45;nan
19108;BME280;9686;48.832;9.126;2023-07-20T02:51:22;98022.25;;;20.41;nan
19108;BME280;9686;48.832;9.126;2023-07-20T02:53:47;98026.63;;;20.42;nan
19108;BME280;9686;48.832;9.126;2023-07-20T02:56:13;98030.25;;;20.40;nan
19108;BME280;9686;48.832;9.126;2023-07-20T02:58:41;98028.31;;;20.43;nan
19108;BME280;9686;48.832;9.126;2023-07-20T03:01:10;98023.81;;;20.45;nan
19108;BME280;9686;48.832;9.126;2023-07-20T03:03:37;98029.88;;;20.47;nan
19108;BME280;9686;48.832;9.126;2023-07-20T03:06:04;98027.75;;;20.37;nan
19108;BME280;9686;48.832;9.126;2023-07-20T03:08:30;98025.19;;;20.88;nan
19108;BME280;9686;48.832;9.126;2023-07-20T03:10:55;98023.06;;;22.13;nan
19108;BME280;9686;48.832;9.126;2023-07-20T03:13:20;98030.94;;;22.14;nan
19108;BME280;9686;48.832;9.126;2023-07-20T03:15:46;98026.38;;;22.17;nan
19108;BME280;9686;48.832;9.126;2023-07-20T03:18:11;98030.06;;;22.14;nan
19108;BME280;9686;48.832;9.126;2023-07-20T03:20:37;98029.00;;;22.01;nan
19108;BME280;9686;48.832;9.126;2023-07-20T03:23:03;98024.31;;;22.06;nan
19108;BME280;9686;48.832;9.126;2023-07-20T03:25:28;98029.94;;;22.00;nan
19108;BME280;9686;48.832;9.126;2023-07-20T03:27:54;98032.66;;;21.98;nan
19108;BME280;9686;48.832;9.126;2023-07-20T03:30:19;98037.28;;;21.95;nan
19108;BME280;9686;48.832;9.126;2023-07-20T03:32:44;98043.63;;;21.92;nan
19108;BME280;9686;48.832;9.126;2023-07-20T03:35:09;98042.59;;;22.12;nan
19108;BME280;9686;48.832;9.126;2023-07-20T03:37:35;98043.63;;;21.92;nan
19108;BME280;9686;48.832;9.126;2023-07-20T03:40:02;98036.19;;;21.99;nan
19108;BME280;9686;48.832;9.126;2023-07-20T03:42:28;98038.72;;;21.84;nan
19108;BME280;9686;48.832;9.126;2023-07-20T03:44:53;98036.91;;;21.85;nan
19108;BME280;9686;48.832;9.126;2023-07-20T03:47:18;98040.09;;;21.76;nan
19108;BME280;9686;48.832;9.126;2023-07-20T03:49:44;98044.34;;;21.63;nan
19108;BME280;9686;48.832;9.126;2023-07-20T03:52:09;98040.41;;;21.70;nan
19108;BME280;9686;48.832;9.126;2023-07-20T03:54:34;98043.50;;;21.78;nan
19108;BME280;9686;48.832;9.126;2023-07-20T03:56:59;98041.63;;;21.64;nan
19108;BME280;9686;48.832;9.126;2023-07-20T03:59:26;98042.81;;;21.74;nan
19108;BME280;9686;48.832;9.126;2023-07-20T04:01:51;98035.97;;;21.70;nan
19108;BME280;9686;48.832;9.126;2023-07-20T04:04:17;98048.94;;;21.59;nan
19108;BME280;9686;48.832;9.126;2023-07-20T04:06:42;98046.44;;;21.56;nan
19108;BME280;9686;48.832;9.126;2023-07-20T04:09:11;98049.00;;;21.58;nan
19108;BME280;9686;48.832;9.126;2023-07-20T04:11:37;98050.13;;;21.53;nan
19108;BME280;9686;48.832;9.126;2023-07-20T04:14:02;98048.16;;;21.57;nan
19108;BME280;9686;48.832;9.126;2023-07-20T04:16:27;98050.72;;;21.59;nan
19108;BME280;9686;48.832;9.126;2023-07-20T04:18:55;98055.03;;;21.61;nan
19108;BME280;9686;48.832;9.126;2023-07-20T04:21:21;98056.03;;;21.59;nan
19108;BME280;9686;48.832;9.126;2023-07-20T04:23:47;98056.69;;;21.64;nan
19108;BME280;9686;48.832;9.126;2023-07-20T04:26:12;98055.66;;;21.66;nan
19108;BME280;9686;48.832;9.126;2023-07-20T04:28:38;98059.41;;;21.62;nan
19108;BME280;9686;48.832;9.126;2023-07-20T04:31:12;98062.75;;;21.66;nan
19108;BME280;9686;48.832;9.126;2023-07-20T04:33:38;98063.34;;;21.71;nan
19108;BME280;9686;48.832;9.126;2023-07-20T04:36:04;98052.31;;;21.78;nan
19108;BME280;9686;48.832;9.126;2023-07-20T04:38:29;98058.50;;;21.79;nan
19108;BME280;9686;48.832;9.126;2023-07-20T04:40:55;98053.56;;;21.89;nan
19108;BME280;9686;48.832;9.126;2023-07-20T04:43:20;98060.88;;;21.83;nan
19108;BME280;9686;48.832;9.126;2023-07-20T04:45:46;98060.81;;;21.85;nan
19108;BME280;9686;48.832;9.126;2023-07-20T04:48:13;98060.59;;;21.90;nan
19108;BME280;9686;48.832;9.126;2023-07-20T04:50:43;98060.94;;;21.99;nan
19108;BME280;9686;48.832;9.126;2023-07-20T04:53:10;98057.06;;;21.89;nan
19108;BME280;9686;48.832;9.126;2023-07-20T04:55:36;98057.06;;;21.89;nan
19108;BME280;9686;48.832;9.126;2023-07-20T04:58:02;98061.69;;;22.01;nan
19108;BME280;9686;48.832;9.126;2023-07-20T05:00:32;98064.34;;;22.01;nan
19108;BME280;9686;48.832;9.126;2023-07-20T05:02:57;98061.56;;;22.04;nan
19108;BME280;9686;48.832;9.126;2023-07-20T05:05:23;98065.06;;;22.05;nan
19108;BME280;9686;48.832;9.126;2023-07-20T05:07:48;98065.94;;;22.05;nan
19108;BME280;9686;48.832;9.126;2023-07-20T05:10:13;98066.25;;;21.99;nan
19108;BME280;9686;48.832;9.126;2023-07-20T05:12:39;98060.00;;;22.00;nan
19108;BME280;9686;48.832;9.126;2023-07-20T05:15:04;98069.13;;;22.12;nan
19108;BME280;9686;48.832;9.126;2023-07-20T05:17:30;98061.69;;;22.19;nan
19108;BME280;9686;48.832;9.126;2023-07-20T05:19:55;98062.09;;;22.27;nan
19108;BME280;9686;48.832;9.126;2023-07-20T05:22:20;98058.84;;;22.22;nan
19108;BME280;9686;48.832;9.126;2023-07-20T05:24:46;98052.06;;;22.32;nan
19108;BME280;9686;48.832;9.126;2023-07-20T05:27:11;98057.75;;;22.41;nan
19108;BME280;9686;48.832;9.126;2023-07-20T05:29:37;98062.19;;;22.57;nan
19108;BME280;9686;48.832;9.126;2023-07-20T05:32:02;98057.44;;;22.62;nan
19108;BME280;9686;48.832;9.126;2023-07-20T05:34:28;98062.66;;;22.63;nan
19108;BME280;9686;48.832;9.126;2023-07-20T05:36:54;98055.31;;;22.68;nan
19108;BME280;9686;48.832;9.126;2023-07-20T05:39:20;98053.84;;;22.78;nan
19108;BME280;9686;48.832;9.126;2023-07-20T05:41:45;98047.41;;;22.83;nan
19108;BME280;9686;48.832;9.126;2023-07-20T05:44:10;98055.97;;;22.88;nan
19108;BME280;9686;48.832;9.126;2023-07-20T05:46:35;98048.81;;;23.04;nan
19108;BME280;9686;48.832;9.126;2023-07-20T05:49:01;98050.06;;;23.13;nan
19108;BME280;9686;48.832;9.126;2023-07-20T05:51:27;98046.78;;;23.23;nan
19108;BME280;9686;48.832;9.126;2023-07-20T05:53:52;98045.00;;;23.24;nan
19108;BME280;9686;48.832;9.126;2023-07-20T05:56:17;98043.97;;;23.41;nan
19108;BME280;9686;48.832;9.126;2023-07-20T05:58:43;98044.69;;;23.58;nan
19108;BME280;9686;48.832;9.126;2023-07-20T06:01:08;98052.16;;;23.52;nan
19108;BME280;9686;48.832;9.126;2023-07-20T06:03:33;98049.50;;;23.52;nan
19108;BME280;9686;48.832;9.126;2023-07-20T06:06:00;98049.06;;;23.59;nan
19108;BME280;9686;48.832;9.126;2023-07-20T06:08:26;98047.06;;;23.77;nan
19108;BME280;9686;48.832;9.126;2023-07-20T06:10:51;98054.41;;;23.74;nan
19108;BME280;9686;48.832;9.126;2023-07-20T06:13:17;98063.72;;;23.81;nan
19108;BME280;9686;48.832;9.126;2023-07-20T06:15:42;98053.16;;;23.79;nan
19108;BME280;9686;48.832;9.126;2023-07-20T06:18:09;98050.59;;;23.78;nan
19108;BME280;9686;48.832;9.126;2023-07-20T06:20:34;98065.25;;;23.99;nan
19108;BME280;9686;48.832;9.126;2023-07-20T06:22:59;98058.19;;;24.12;nan
19108;BME280;9686;48.832;9.126;2023-07-20T06:25:25;98049.34;;;23.97;nan
19108;BME280;9686;48.832;9.126;2023-07-20T06:27:50;98057.03;;;24.16;nan
19108;BME280;9686;48.832;9.126;2023-07-20T06:30:16;98046.16;;;24.19;nan
19108;BME280;9686;48.832;9.126;2023-07-20T06:32:42;98053.41;;;24.17;nan
19108;BME280;9686;48.832;9.126;2023-07-20T06:35:07;98053.13;;;24.36;nan
19108;BME280;9686;48.832;9.126;2023-07-20T06:37:33;98058.47;;;24.22;nan
19108;BME280;9686;48.832;9.126;2023-07-20T06:39:59;98063.03;;;24.34;nan
19108;BME280;9686;48.832;9.126;2023-07-20T06:42:24;98058.75;;;24.32;nan
19108;BME280;9686;48.832;9.126;2023-07-20T06:44:49;98064.44;;;24.40;nan
19108;BME280;9686;48.832;9.126;2023-07-20T06:47:15;98053.38;;;24.46;nan
19108;BME280;9686;48.832;9.126;2023-07-20T06:49:40;98052.06;;;24.39;nan
19108;BME280;9686;48.832;9.126;2023-07-20T06:52:06;98053.38;;;24.46;nan
19108;BME280;9686;48.832;9.126;2023-07-20T06:54:31;98051.97;;;24.40;nan
19108;BME280;9686;48.832;9.126;2023-07-20T06:56:57;98054.44;;;24.43;nan
19108;BME280;9686;48.832;9.126;2023-07-20T06:59:22;98049.94;;;24.44;nan
19108;BME280;9686;48.832;9.126;2023-07-20T07:01:49;98052.69;;;24.56;nan
19108;BME280;9686;48.832;9.126;2023-07-20T07:04:14;98054.31;;;24.59;nan
19108;BME280;9686;48.832;9.126;2023-07-20T07:06:40;98045.16;;;24.63;nan
19108;BME280;9686;48.832;9.126;2023-07-20T07:09:05;98046.41;;;24.57;nan
19108;BME280;9686;48.832;9.126;2023-07-20T07:11:30;98046.91;;;24.50;nan
19108;BME280;9686;48.832;9.126;2023-07-20T07:13:56;98054.59;;;24.54;nan
19108;BME280;9686;48.832;9.126;2023-07-20T07:16:21;98045.97;;;24.51;nan
19108;BME280;9686;48.832;9.126;2023-07-20T07:18:47;98046.81;;;24.51;nan
19108;BME280;9686;48.832;9.126;2023-07-20T07:21:12;98046.41;;;24.57;nan
19108;BME280;9686;48.832;9.126;2023-07-20T07:23:38;98043.59;;;24.46;nan
19108;BME280;9686;48.832;9.126;2023-07-20T07:26:04;98041.31;;;24.40;nan
19108;BME280;9686;48.832;9.126;2023-07-20T07:28:29;98050.47;;;24.63;nan
19108;BME280;9686;48.832;9.126;2023-07-20T07:30:55;98044.91;;;24.80;nan
19108;BME280;9686;48.832;9.126;2023-07-20T07:33:22;98049.41;;;24.92;nan
19108;BME280;9686;48.832;9.126;2023-07-20T07:35:47;98044.28;;;24.89;nan
19108;BME280;9686;48.832;9.126;2023-07-20T07:38:12;98038.59;;;25.08;nan
19108;BME280;9686;48.832;9.126;2023-07-20T07:40:38;98033.06;;;25.11;nan
19108;BME280;9686;48.832;9.126;2023-07-20T07:43:03;98034.13;;;25.21;nan
19108;BME280;9686;48.832;9.126;2023-07-20T07:45:28;98035.94;;;25.21;nan
19108;BME280;9686;48.832;9.126;2023-07-20T07:47:54;98040.44;;;25.46;nan
19108;BME280;9686;48.832;9.126;2023-07-20T07:50:19;98033.00;;;25.64;nan
19108;BME280;9686;48.832;9.126;2023-07-20T07:52:44;98028.41;;;25.53;nan
19108;BME280;9686;48.832;9.126;2023-07-20T07:55:10;98036.41;;;25.40;nan
19108;BME280;9686;48.832;9.126;2023-07-20T07:57:35;98030.88;;;25.56;nan
19108;BME280;9686;48.832;9.126;2023-07-20T08:00:00;98035.34;;;25.30;nan
19108;BME280;9686;48.832;9.126;2023-07-20T08:02:25;98032.31;;;25.22;nan
19108;BME280;9686;48.832;9.126;2023-07-20T08:04:51;98028.97;;;25.84;nan
19108;BME280;9686;48.832;9.126;2023-07-20T08:07:17;98030.53;;;25.61;nan
19108;BME280;9686;48.832;9.126;2023-07-20T08:09:42;98036.28;;;25.42;nan
19108;BME280;9686;48.832;9.126;2023-07-20T08:12:09;98043.66;;;25.64;nan
19108;BME280;9686;48.832;9.126;2023-07-20T08:14:34;98039.06;;;25.28;nan
19108;BME280;9686;48.832;9.126;2023-07-20T08:17:00;98052.53;;;25.26;nan
19108;BME280;9686;48.832;9.126;2023-07-20T08:19:25;98040.56;;;25.32;nan
19108;BME280;9686;48.832;9.126;2023-07-20T08:21:50;98040.31;;;25.09;nan
19108;BME280;9686;48.832;9.126;2023-07-20T08:24:16;98034.34;;;25.18;nan
19108;BME280;9686;48.832;9.126;2023-07-20T08:26:41;98035.19;;;25.19;nan
19108;BME280;9686;48.832;9.126;2023-07-20T08:29:06;98038.00;;;25.30;nan
19108;BME280;9686;48.832;9.126;2023-07-20T08:31:31;98027.31;;;25.30;nan
19108;BME280;9686;48.832;9.126;2023-07-20T08:33:57;98034.03;;;25.48;nan
19108;BME280;9686;48.832;9.126;2023-07-20T08:36:23;98039.28;;;25.63;nan
19108;BME280;9686;48.832;9.126;2023-07-20T08:38:48;98040.25;;;25.74;nan
19108;BME280;9686;48.832;9.126;2023-07-20T08:41:14;98033.88;;;25.77;nan
19108;BME280;9686;48.832;9.126;2023-07-20T08:43:42;98035.56;;;25.52;nan
19108;BME280;9686;48.832;9.126;2023-07-20T08:46:11;98033.94;;;25.50;nan
19108;BME280;9686;48.832;9.126;2023-07-20T08:48:38;98036.19;;;25.43;nan
19108;BME280;9686;48.832;9.126;2023-07-20T08:51:04;98035.00;;;25.47;nan
19108;BME280;9686;48.832;9.126;2023-07-20T08:53:31;98037.47;;;25.63;nan
19108;BME280;9686;48.832;9.126;2023-07-20T08:55:58;98036.63;;;25.75;nan
19108;BME280;9686;48.832;9.126;2023-07-20T08:58:25;98024.69;;;25.81;nan
19108;BME280;9686;48.832;9.126;2023-07-20T09:00:51;98030.22;;;25.91;nan
19108;BME280;9686;48.832;9.126;2023-07-20T09:03:18;98021.06;;;25.82;nan
19108;BME280;9686;48.832;9.126;2023-07-20T09:05:44;98023.63;;;26.20;nan
19108;BME280;9686;48.832;9.126;2023-07-20T09:08:10;98020.75;;;26.23;nan
19108;BME280;9686;48.832;9.126;2023-07-20T09:10:35;98028.63;;;25.88;nan
19108;BME280;9686;48.832;9.126;2023-07-20T09:13:01;98027.75;;;25.49;nan
19108;BME280;9686;48.832;9.126;2023-07-20T09:15:26;98032.47;;;25.71;nan
19108;BME280;9686;48.832;9.126;2023-07-20T09:17:51;98031.16;;;25.64;nan
19108;BME280;9686;48.832;9.126;2023-07-20T09:20:19;98028.31;;;25.80;nan
19108;BME280;9686;48.832;9.126;2023-07-20T09:22:45;98031.19;;;25.90;nan
19108;BME280;9686;48.832;9.126;2023-07-20T09:25:12;98023.34;;;25.99;nan
19108;BME280;9686;48.832;9.126;2023-07-20T09:27:43;98015.91;;;25.92;nan
19108;BME280;9686;48.832;9.126;2023-07-20T09:30:10;98027.22;;;25.95;nan
19108;BME280;9686;48.832;9.126;2023-07-20T09:32:40;98031.59;;;25.96;nan
19108;BME280;9686;48.832;9.126;2023-07-20T09:35:07;98019.41;;;26.05;nan
19108;BME280;9686;48.832;9.126;2023-07-20T09:37:37;98024.66;;;25.94;nan
19108;BME280;9686;48.832;9.126;2023-07-20T09:40:06;98007.53;;;26.46;nan
19108;BME280;9686;48.832;9.126;2023-07-20T09:42:32;98019.06;;;26.59;nan
19108;BME280;9686;48.832;9.126;2023-07-20T09:44:57;98014.88;;;27.02;nan
19108;BME280;9686;48.832;9.126;2023-07-20T09:47:23;98016.38;;;26.83;nan
19108;BME280;9686;48.832;9.126;2023-07-20T09:49:49;98020.06;;;26.93;nan
19108;BME280;9686;48.832;9.126;2023-07-20T09:52:14;98013.97;;;26.67;nan
19108;BME280;9686;48.832;9.126;2023-07-20T09:54:44;98017.97;;;26.61;nan
19108;BME280;9686;48.832;9.126;2023-07-20T09:57:11;98006.94;;;26.66;nan
19108;BME280;9686;48.832;9.126;2023-07-20T09:59:37;98006.31;;;26.97;nan
19108;BME280;9686;48.832;9.126;2023-07-20T10:02:11;98008.25;;;27.30;nan
19108;BME280;9686;48.832;9.126;2023-07-20T10:04:40;98007.63;;;27.16;nan
19108;BME280;9686;48.832;9.126;2023-07-20T10:07:09;98008.25;;;26.95;nan
19108;BME280;9686;48.832;9.126;2023-07-20T10:09:39;98009.22;;;27.18;nan
19108;BME280;9686;48.832;9.126;2023-07-20T10:12:05;98005.19;;;26.89;nan
19108;BME280;9686;48.832;9.126;2023-07-20T10:14:35;97993.91;;;26.96;nan
19108;BME280;9686;48.832;9.126;2023-07-20T10:17:05;98002.09;;;26.71;nan
19108;BME280;9686;48.832;9.126;2023-07-20T10:19:37;98003.66;;;26.73;nan
19108;BME280;9686;48.832;9.126;2023-07-20T10:22:11;97993.53;;;26.90;nan
19108;BME280;9686;48.832;9.126;2023-07-20T10:24:38;97990.78;;;27.02;nan
19108;BME280;9686;48.832;9.126;2023-07-20T10:27:05;97987.47;;;27.34;nan
19108;BME280;9686;48.832;9.126;2023-07-20T10:29:31;97998.19;;;27.45;nan
19108;BME280;9686;48.832;9.126;2023-07-20T10:31:57;97983.19;;;27.31;nan
19108;BME280;9686;48.832;9.126;2023-07-20T10:34:22;97981.53;;;27.42;nan
19108;BME280;9686;48.832;9.126;2023-07-20T10:36:48;97978.19;;;27.27;nan
19108;BME280;9686;48.832;9.126;2023-07-20T10:39:46;97977.28;;;27.61;nan
19108;BME280;9686;48.832;9.126;2023-07-20T10:42:12;97984.81;;;27.56;nan
19108;BME280;9686;48.832;9.126;2023-07-20T10:44:38;97973.28;;;27.78;nan
19108;BME280;9686;48.832;9.126;2023-07-20T10:47:12;97970.72;;;27.99;nan
19108;BME280;9686;48.832;9.126;2023-07-20T10:49:59;97976.59;;;27.71;nan
19108;BME280;9686;48.832;9.126;2023-07-20T10:52:25;97966.69;;;27.82;nan
19108;BME280;9686;48.832;9.126;2023-07-20T10:54:50;97969.25;;;27.61;nan
19108;BME280;9686;48.832;9.126;2023-07-20T10:57:30;97969.09;;;27.52;nan
19108;BME280;9686;48.832;9.126;2023-07-20T11:00:12;97958.31;;;27.64;nan
19108;BME280;9686;48.832;9.126;2023-07-20T11:02:44;97961.44;;;27.58;nan
19108;BME280;9686;48.832;9.126;2023-07-20T11:05:38;97964.03;;;27.82;nan
19108;BME280;9686;48.832;9.126;2023-07-20T11:08:14;97958.38;;;28.08;nan
19108;BME280;9686;48.832;9.126;2023-07-20T11:11:22;97966.84;;;27.92;nan
19108;BME280;9686;48.832;9.126;2023-07-20T11:13:55;97970.09;;;27.84;nan
19108;BME280;9686;48.832;9.126;2023-07-20T11:18:58;97962.03;;;28.29;nan
19108;BME280;9686;48.832;9.126;2023-07-20T11:21:24;97963.53;;;28.54;nan
19108;BME280;9686;48.832;9.126;2023-07-20T11:23:51;97962.69;;;28.53;nan
19108;BME280;9686;48.832;9.126;2023-07-20T11:26:17;97966.19;;;28.65;nan
19108;BME280;9686;48.832;9.126;2023-07-20T11:28:48;97964.75;;;28.93;nan
19108;BME280;9686;48.832;9.126;2023-07-20T11:31:14;97952.78;;;28.97;nan
19108;BME280;9686;48.832;9.126;2023-07-20T11:33:41;97955.03;;;28.49;nan
19108;BME280;9686;48.832;9.126;2023-07-20T11:36:08;97951.09;;;28.64;nan
19108;BME280;9686;48.832;9.126;2023-07-20T11:38:33;97954.25;;;28.58;nan
19108;BME280;9686;48.832;9.126;2023-07-20T11:40:59;97950.69;;;29.73;nan
19108;BME280;9686;48.832;9.126;2023-07-20T11:43:24;97942.19;;;30.08;nan
19108;BME280;9686;48.832;9.126;2023-07-20T11:45:51;97943.22;;;30.36;nan
19108;BME280;9686;48.832;9.126;2023-07-20T11:48:16;97942.84;;;30.98;nan
19108;BME280;9686;48.832;9.126;2023-07-20T11:50:42;97944.75;;;31.45;nan
19108;BME280;9686;48.832;9.126;2023-07-20T11:53:08;97949.41;;;33.16;nan
19108;BME280;9686;48.832;9.126;2023-07-20T11:55:33;97933.25;;;34.18;nan
19108;BME280;9686;48.832;9.126;2023-07-20T11:58:06;97925.50;;;34.31;nan
19108;BME280;9686;48.832;9.126;2023-07-20T12:00:33;97927.28;;;34.56;nan
19108;BME280;9686;48.832;9.126;2023-07-20T12:02:59;97925.13;;;35.01;nan
19108;BME280;9686;48.832;9.126;2023-07-20T12:05:24;97925.06;;;34.52;nan
19108;BME280;9686;48.832;9.126;2023-07-20T12:07:51;97908.41;;;34.30;nan
19108;BME280;9686;48.832;9.126;2023-07-20T12:10:26;97923.56;;;34.07;nan
19108;BME280;9686;48.832;9.126;2023-07-20T12:12:52;97919.66;;;33.93;nan
19108;BME280;9686;48.832;9.126;2023-07-20T12:15:22;97927.34;;;33.02;nan
19108;BME280;9686;48.832;9.126;2023-07-20T12:17:56;97921.56;;;32.44;nan
19108;BME280;9686;48.832;9.126;2023-07-20T12:20:31;97920.91;;;31.87;nan
19108;BME280;9686;48.832;9.126;2023-07-20T12:23:02;97924.13;;;31.63;nan
19108;BME280;9686;48.832;9.126;2023-07-20T12:25:38;97910.34;;;31.29;nan
19108;BME280;9686;48.832;9.126;2023-07-20T12:28:14;97904.31;;;30.98;nan
19108;BME280;9686;48.832;9.126;2023-07-20T12:30:41;97899.22;;;30.66;nan
19108;BME280;9686;48.832;9.126;2023-07-20T12:33:07;97902.16;;;31.02;nan
19108;BME280;9686;48.832;9.126;2023-07-20T12:35:32;97906.56;;;30.25;nan
19108;BME280;9686;48.832;9.126;2023-07-20T12:37:58;97900.06;;;30.86;nan
19108;BME280;9686;48.832;9.126;2023-07-20T12:40:24;97894.25;;;30.61;nan
19108;BME280;9686;48.832;9.126;2023-07-20T12:42:49;97895.25;;;30.51;nan
19108;BME280;9686;48.832;9.126;2023-07-20T12:45:14;97886.31;;;30.60;nan
19108;BME280;9686;48.832;9.126;2023-07-20T12:47:40;97878.38;;;30.39;nan
19108;BME280;9686;48.832;9.126;2023-07-20T12:50:08;97887.97;;;30.03;nan
19108;BME280;9686;48.832;9.126;2023-07-20T12:52:37;97881.72;;;30.02;nan
19108;BME280;9686;48.832;9.126;2023-07-20T12:55:04;97880.22;;;30.19;nan
19108;BME280;9686;48.832;9.126;2023-07-20T12:57:30;97876.78;;;30.17;nan
19108;BME280;9686;48.832;9.126;2023-07-20T12:59:55;97886.00;;;30.05;nan
19108;BME280;9686;48.832;9.126;2023-07-20T13:02:20;97873.75;;;29.91;nan
19108;BME280;9686;48.832;9.126;2023-07-20T13:04:45;97873.53;;;30.04;nan
19108;BME280;9686;48.832;9.126;2023-07-20T13:07:11;97875.59;;;29.91;nan
19108;BME280;9686;48.832;9.126;2023-07-20T13:09:37;97868.94;;;29.85;nan
19108;BME280;9686;48.832;9.126;2023-07-20T13:12:02;97863.91;;;29.61;nan
19108;BME280;9686;48.832;9.126;2023-07-20T13:14:28;97860.25;;;29.62;nan
19108;BME280;9686;48.832;9.126;2023-07-20T13:16:55;97862.63;;;29.96;nan
19108;BME280;9686;48.832;9.126;2023-07-20T13:19:20;97857.69;;;29.51;nan
19108;BME280;9686;48.832;9.126;2023-07-20T13:21:45;97850.88;;;29.47;nan
19108;BME280;9686;48.832;9.126;2023-07-20T13:24:11;97857.97;;;29.27;nan
19108;BME280;9686;48.832;9.126;2023-07-20T13:26:36;97863.38;;;29.37;nan
19108;BME280;9686;48.832;9.126;2023-07-20T13:29:01;97858.31;;;29.13;nan
19108;BME280;9686;48.832;9.126;2023-07-20T13:31:27;97866.31;;;29.24;nan
19108;BME280;9686;48.832;9.126;2023-07-20T13:33:53;97855.19;;;29.38;nan
19108;BME280;9686;48.832;9.126;2023-07-20T13:36:18;97859.47;;;29.41;nan
19108;BME280;9686;48.832;9.126;2023-07-20T13:38:45;97858.03;;;29.67;nan
19108;BME280;9686;48.832;9.126;2023-07-20T13:41:11;97856.41;;;29.45;nan